Terminal Aerodrome Forecast
Issued by NWS

Home | Current Version | Previous Version | Text Only | Print | Product List | Glossary On
Versions: 1 2 3 4 5 6 7 8 9 10 11 12 13 14 15 16 17
000
FTUS41 KRNK 272027 AAB
TAFBCB
TAF AMD
KBCB 272027Z 2720/2818 00000KT P6SM VCTS SCT040CB BKN080
      TEMPO 2720/2721 27010G20KT 1SM +TSRA VV009CB
     FM280100 30005KT P6SM BKN070
     FM280500 00000KT 4SM BR SCT080
     FM280900 00000KT 1SM BR SCT001 BKN100
     FM281300 27004KT P6SM SCT070 BKN250=

USA.gov is the U.S. government's official web portal to all federal, state and local government web resources and services.